Time;durP1;ratioP1;P1;durP2;ratioP2;P2;SDS_P1;SDS_P2;PMS_P1;PMS_P2;Temp;Humidity;BMP_temperature;BMP_pressure;BME280_temperature;BME280_humidity;BME280_pressure;Samples;Min_cycle;Max_cycle;Signal;HPM_P1;HPM_P2
2021/04/23 00:03:53;;;;;;;5.93;3.67;;;8.80;23.50;;;;;;10446905;28;20229;-73
2021/04/23 00:09:00;;;;;;;6.83;4.10;;;8.70;23.60;;;;;;10445197;28;20316;-73
2021/04/23 00:14:05;;;;;;;8.10;4.20;;;8.70;23.80;;;;;;10450155;28;20806;-73
2021/04/23 00:19:08;;;;;;;6.00;4.17;;;8.70;23.60;;;;;;10443405;28;20228;-73
2021/04/23 00:24:11;;;;;;;6.13;4.20;;;8.60;23.60;;;;;;10447260;28;20311;-73
2021/04/23 00:29:15;;;;;;;9.70;4.50;;;8.40;23.70;;;;;;10449391;28;20224;-73
2021/04/23 00:34:17;;;;;;;8.30;4.53;;;8.30;23.90;;;;;;10446909;28;20312;-73
2021/04/23 00:39:20;;;;;;;5.10;3.27;;;8.20;23.80;;;;;;10439977;28;20237;-73
2021/04/23 00:44:23;;;;;;;5.83;3.53;;;8.00;24.00;;;;;;10444681;28;20760;-73
2021/04/23 00:49:25;;;;;;;8.93;4.13;;;8.00;24.00;;;;;;10446023;28;20629;-73
2021/04/23 00:54:29;;;;;;;7.10;3.30;;;7.90;24.10;;;;;;10444237;28;20232;-73
2021/04/23 00:59:32;;;;;;;6.97;3.80;;;7.90;24.30;;;;;;10436912;28;20256;-73
2021/04/23 01:04:34;;;;;;;5.50;3.50;;;7.90;24.40;;;;;;10447916;28;20311;-73
2021/04/23 01:09:37;;;;;;;5.73;3.53;;;7.90;24.40;;;;;;10447005;28;20324;-73
2021/04/23 01:14:40;;;;;;;5.23;3.73;;;7.90;24.40;;;;;;10445840;28;20351;-73
2021/04/23 01:19:42;;;;;;;5.53;3.53;;;7.80;24.30;;;;;;10443278;28;20307;-73
2021/04/23 01:24:45;;;;;;;5.80;3.40;;;7.80;24.30;;;;;;10445493;28;20734;-73
2021/04/23 01:29:47;;;;;;;7.77;3.50;;;7.70;24.40;;;;;;10444597;28;20229;-73
2021/04/23 01:34:50;;;;;;;5.67;3.10;;;7.60;24.30;;;;;;10440887;28;20724;-73
2021/04/23 01:39:56;;;;;;;5.63;3.43;;;7.40;24.40;;;;;;10442901;28;20232;-73
2021/04/23 01:44:59;;;;;;;3.77;3.23;;;7.30;24.70;;;;;;10444123;28;20221;-73
2021/04/23 01:50:01;;;;;;;4.97;3.30;;;7.30;24.80;;;;;;10444175;28;20308;-73
2021/04/23 01:55:07;;;;;;;5.40;3.17;;;7.30;24.80;;;;;;10445639;28;20315;-73
2021/04/23 02:00:14;;;;;;;4.93;2.90;;;7.20;25.10;;;;;;10435072;28;20229;-73
2021/04/23 02:05:16;;;;;;;3.73;3.07;;;7.20;25.10;;;;;;10442930;28;20275;-73
2021/04/23 02:10:31;;;;;;;6.00;3.10;;;7.20;24.90;;;;;;10442918;28;20225;-73
2021/04/23 02:15:35;;;;;;;6.67;3.33;;;7.20;25.40;;;;;;10443537;28;20319;-73
2021/04/23 02:20:38;;;;;;;3.93;3.07;;;7.30;25.10;;;;;;10442340;28;20237;-73
2021/04/23 02:25:46;;;;;;;5.87;3.03;;;7.30;25.10;;;;;;10444838;28;20217;-73
2021/04/23 02:30:51;;;;;;;3.07;2.57;;;7.30;25.20;;;;;;10440315;28;20731;-73
2021/04/23 02:35:56;;;;;;;5.37;3.60;;;7.30;25.20;;;;;;10437876;28;20212;-73
2021/04/23 02:41:00;;;;;;;4.70;3.17;;;7.30;25.30;;;;;;10442853;28;20216;-73
2021/04/23 02:46:03;;;;;;;6.37;3.60;;;7.20;25.10;;;;;;10442099;28;20343;-73
2021/04/23 02:51:08;;;;;;;4.00;2.80;;;7.20;25.20;;;;;;10440544;28;20311;-73
2021/04/23 02:56:13;;;;;;;3.30;2.80;;;7.10;25.30;;;;;;10443089;28;20638;-73
2021/04/23 03:01:22;;;;;;;3.10;2.80;;;7.10;25.30;;;;;;10438932;28;20320;-73
2021/04/23 03:06:27;;;;;;;4.00;3.23;;;7.00;25.40;;;;;;10442746;28;20647;-73
2021/04/23 03:11:31;;;;;;;3.00;2.70;;;7.00;25.30;;;;;;10443847;28;20671;-73
2021/04/23 03:16:36;;;;;;;5.17;3.43;;;7.00;25.30;;;;;;10437568;28;20303;-73
2021/04/23 03:21:38;;;;;;;4.20;3.07;;;7.00;25.40;;;;;;10448512;28;20778;-73
2021/04/23 03:26:44;;;;;;;3.10;2.80;;;7.00;25.30;;;;;;10450549;28;20661;-73
2021/04/23 03:31:46;;;;;;;7.13;3.43;;;6.90;25.50;;;;;;10450313;28;20311;-72
2021/04/23 03:36:49;;;;;;;7.23;4.80;;;7.00;25.40;;;;;;10450854;28;20676;-72
2021/04/23 03:41:52;;;;;;;7.70;5.60;;;7.00;25.40;;;;;;10446265;28;20839;-73
2021/04/23 03:46:54;;;;;;;9.33;6.10;;;6.90;25.40;;;;;;10448141;28;20343;-73
2021/04/23 03:51:56;;;;;;;8.77;6.60;;;6.90;25.40;;;;;;10450113;28;20787;-73
2021/04/23 03:56:59;;;;;;;7.30;5.03;;;6.90;25.30;;;;;;10446714;28;20296;-73
2021/04/23 04:02:01;;;;;;;7.27;5.63;;;6.80;25.40;;;;;;10445304;28;20249;-73
2021/04/23 04:07:04;;;;;;;5.37;4.30;;;6.80;25.40;;;;;;10445740;28;20232;-72
2021/04/23 04:12:08;;;;;;;7.20;4.63;;;6.80;25.50;;;;;;10448940;28;20312;-73
2021/04/23 04:17:10;;;;;;;7.20;4.30;;;6.80;25.80;;;;;;10446383;28;20633;-73
2021/04/23 04:22:13;;;;;;;5.83;3.53;;;6.70;25.60;;;;;;10448675;28;20709;-73
2021/04/23 04:27:16;;;;;;;5.70;3.53;;;6.70;25.60;;;;;;10445908;28;20452;-73
2021/04/23 04:32:19;;;;;;;4.30;3.13;;;6.60;25.80;;;;;;10447540;28;20316;-73
2021/04/23 04:37:21;;;;;;;5.00;3.33;;;6.50;25.60;;;;;;10444834;28;20238;-72
2021/04/23 04:42:25;;;;;;;5.07;3.40;;;6.40;25.80;;;;;;10444873;28;20221;-73
2021/04/23 04:47:28;;;;;;;5.27;3.40;;;6.40;26.00;;;;;;10444324;28;20275;-73
2021/04/23 04:52:30;;;;;;;5.20;3.27;;;6.40;26.00;;;;;;10443126;28;20256;-73
2021/04/23 04:57:33;;;;;;;5.10;3.63;;;6.30;25.90;;;;;;10443375;28;20747;-73
2021/04/23 05:02:36;;;;;;;5.63;3.97;;;6.30;26.20;;;;;;10440756;28;20769;-73
2021/04/23 05:07:38;;;;;;;4.67;3.43;;;6.20;26.30;;;;;;10447374;28;20307;-73
2021/04/23 05:12:42;;;;;;;3.70;3.37;;;6.20;26.40;;;;;;10443060;28;20658;-73
2021/04/23 05:17:44;;;;;;;5.93;3.17;;;6.10;26.60;;;;;;10446187;28;20225;-73
2021/04/23 05:22:47;;;;;;;6.10;3.30;;;6.10;26.60;;;;;;10440497;28;20240;-73
2021/04/23 05:27:50;;;;;;;4.23;3.37;;;6.00;26.50;;;;;;10443526;28;20671;-73
2021/04/23 05:32:54;;;;;;;6.07;3.90;;;6.00;26.50;;;;;;10443310;28;20229;-72
2021/04/23 05:38:01;;;;;;;5.47;3.60;;;6.00;26.50;;;;;;10444000;28;20225;-72
2021/04/23 05:43:05;;;;;;;7.30;4.63;;;6.00;26.50;;;;;;10438088;28;20308;-73
2021/04/23 05:48:08;;;;;;;5.77;4.23;;;6.00;27.10;;;;;;10440629;28;20252;-73
2021/04/23 05:53:11;;;;;;;9.33;4.23;;;6.00;26.90;;;;;;10445284;28;20253;-73
2021/04/23 05:58:14;;;;;;;4.37;3.60;;;6.00;27.00;;;;;;10443607;28;20261;-73
2021/04/23 06:03:16;;;;;;;6.43;4.13;;;6.10;27.30;;;;;;10437396;28;20324;-73
2021/04/23 06:08:19;;;;;;;5.17;4.00;;;6.20;27.40;;;;;;10434619;28;20416;-73
2021/04/23 06:13:22;;;;;;;4.77;3.63;;;6.30;27.40;;;;;;10442818;28;20662;-73
2021/04/23 06:18:24;;;;;;;5.90;3.60;;;6.40;27.60;;;;;;10441951;28;20240;-73
2021/04/23 06:23:26;;;;;;;9.83;4.47;;;6.50;27.70;;;;;;10440185;28;20251;-73
2021/04/23 06:28:29;;;;;;;5.63;3.70;;;6.70;27.80;;;;;;10438100;28;20261;-72
2021/04/23 06:33:35;;;;;;;5.70;3.63;;;6.80;27.90;;;;;;10442267;28;20237;-73
2021/04/23 06:38:38;;;;;;;5.90;3.63;;;7.10;27.80;;;;;;10431872;28;20212;-73
2021/04/23 06:43:42;;;;;;;5.93;3.63;;;7.20;27.70;;;;;;10442725;28;20720;-72
2021/04/23 06:48:47;;;;;;;9.90;3.97;;;7.40;27.90;;;;;;10438098;28;20225;-72
2021/04/23 06:53:50;;;;;;;6.63;4.00;;;7.60;28.30;;;;;;10440681;28;20217;-72
2021/04/23 06:58:54;;;;;;;6.60;5.00;;;7.80;27.70;;;;;;10445748;28;20217;-72
2021/04/23 07:03:56;;;;;;;9.40;6.30;;;8.00;27.90;;;;;;10442706;28;20307;-73
2021/04/23 07:08:58;;;;;;;9.17;6.43;;;8.20;27.90;;;;;;10444090;28;20315;-72
2021/04/23 07:14:01;;;;;;;9.80;5.73;;;8.40;28.10;;;;;;10447917;28;20224;-73
2021/04/23 07:19:04;;;;;;;11.60;4.97;;;8.60;28.20;;;;;;10446085;28;20631;-72
2021/04/23 07:24:08;;;;;;;7.23;4.17;;;8.80;28.30;;;;;;10444578;28;20294;-73
2021/04/23 07:29:11;;;;;;;9.70;3.90;;;9.10;28.50;;;;;;10446007;28;20236;-73
2021/04/23 07:34:13;;;;;;;7.30;3.40;;;9.40;28.70;;;;;;10448218;28;20705;-73
2021/04/23 07:39:16;;;;;;;7.20;3.33;;;9.60;28.30;;;;;;10447068;28;20227;-71
2021/04/23 07:44:19;;;;;;;7.27;2.87;;;9.90;28.00;;;;;;10444411;28;20244;-71
2021/04/23 07:49:21;;;;;;;6.03;3.30;;;10.20;27.20;;;;;;10448824;28;20315;-72
2021/04/23 07:54:24;;;;;;;5.87;2.87;;;10.50;27.20;;;;;;10448433;28;20311;-71
2021/04/23 07:59:27;;;;;;;5.93;3.23;;;10.90;27.10;;;;;;10446768;28;20305;-71
2021/04/23 08:04:29;;;;;;;4.67;2.83;;;11.30;26.90;;;;;;10441137;28;20296;-71
2021/04/23 08:09:32;;;;;;;7.13;3.20;;;11.60;26.80;;;;;;10448187;28;20674;-72
2021/04/23 08:14:35;;;;;;;7.30;2.90;;;12.00;26.70;;;;;;10446018;28;20315;-71
2021/04/23 08:19:41;;;;;;;6.73;2.70;;;12.30;26.30;;;;;;10445727;28;20241;-71
2021/04/23 08:24:44;;;;;;;8.10;2.87;;;12.60;26.30;;;;;;10441732;28;20259;-72
2021/04/23 08:29:47;;;;;;;5.57;2.70;;;12.90;26.00;;;;;;10445233;28;20225;-71
2021/04/23 08:34:49;;;;;;;6.33;2.63;;;13.20;25.90;;;;;;10444220;28;20229;-71
2021/04/23 08:39:51;;;;;;;7.27;2.77;;;13.50;25.90;;;;;;10443142;28;20316;-71
2021/04/23 08:44:54;;;;;;;6.67;2.70;;;13.80;25.40;;;;;;10437646;28;20319;-71
2021/04/23 08:49:58;;;;;;;5.40;2.70;;;14.00;25.30;;;;;;10438670;28;20307;-72
2021/04/23 08:55:00;;;;;;;7.53;3.20;;;14.20;25.00;;;;;;10443615;28;20239;-71
2021/04/23 09:00:05;;;;;;;5.73;2.80;;;14.40;25.00;;;;;;10444645;28;20693;-71
2021/04/23 09:05:09;;;;;;;4.67;2.63;;;14.60;24.90;;;;;;10440666;28;20280;-71
2021/04/23 09:10:13;;;;;;;6.00;2.70;;;14.80;24.60;;;;;;10445424;28;20229;-71
2021/04/23 09:15:23;;;;;;;5.10;2.67;;;15.00;24.60;;;;;;10443227;28;20328;-72
2021/04/23 09:20:29;;;;;;;5.37;2.63;;;15.20;23.30;;;;;;10438505;28;20749;-72
2021/04/23 09:25:39;;;;;;;5.47;2.73;;;15.30;24.00;;;;;;10439312;28;20316;-72
2021/04/23 09:30:43;;;;;;;5.20;3.03;;;15.50;23.20;;;;;;10444166;28;20228;-72
2021/04/23 09:35:45;;;;;;;4.07;2.57;;;15.60;23.30;;;;;;10443673;28;20225;-72
2021/04/23 09:40:48;;;;;;;6.37;2.90;;;15.70;23.60;;;;;;10446032;28;20221;-72
2021/04/23 09:45:54;;;;;;;6.73;3.03;;;15.80;23.40;;;;;;10445648;28;20316;-71
2021/04/23 09:50:58;;;;;;;5.50;3.30;;;16.00;23.10;;;;;;10440666;28;20237;-72
2021/04/23 09:56:00;;;;;;;5.07;2.67;;;16.20;22.80;;;;;;10440825;28;20300;-72
2021/04/23 10:01:03;;;;;;;7.43;3.30;;;16.30;23.20;;;;;;10441468;28;20271;-72
2021/04/23 10:06:22;;;;;;;3.90;3.00;;;16.50;23.00;;;;;;10441908;28;20628;-72
2021/04/23 10:11:40;;;;;;;5.57;2.57;;;16.70;22.10;;;;;;10440369;28;20724;-72
2021/04/23 10:16:43;;;;;;;6.07;3.10;;;16.80;22.10;;;;;;10439360;28;20300;-72
2021/04/23 10:21:46;;;;;;;5.43;3.27;;;17.00;23.00;;;;;;10440514;28;20315;-72
2021/04/23 10:26:50;;;;;;;6.17;2.93;;;17.10;22.70;;;;;;10441096;28;20217;-72
2021/04/23 10:31:54;;;;;;;5.00;3.00;;;17.20;22.60;;;;;;10440921;28;20221;-72
2021/04/23 10:36:56;;;;;;;4.30;3.20;;;17.30;22.00;;;;;;10441376;28;20217;-72
2021/04/23 10:41:58;;;;;;;4.07;2.90;;;17.40;22.10;;;;;;10442320;28;20324;-71
2021/04/23 10:47:02;;;;;;;6.10;3.23;;;17.50;22.00;;;;;;10441369;28;20768;-73
2021/04/23 10:52:07;;;;;;;5.43;3.10;;;17.60;21.10;;;;;;10441572;28;20225;-71
2021/04/23 10:57:09;;;;;;;4.90;2.80;;;17.50;21.30;;;;;;10442379;28;20303;-71
2021/04/23 11:02:14;;;;;;;3.70;2.90;;;17.50;21.50;;;;;;10444005;28;20312;-72
2021/04/23 11:07:17;;;;;;;4.97;2.90;;;17.60;20.90;;;;;;10441737;28;20713;-72
2021/04/23 11:12:19;;;;;;;5.27;3.20;;;17.60;21.50;;;;;;10445394;28;20327;-72
2021/04/23 11:17:33;;;;;;;4.70;2.80;;;17.80;20.50;;;;;;10441433;28;20765;-72
2021/04/23 11:22:53;;;;;;;4.93;2.93;;;17.70;20.70;;;;;;10443361;28;20366;-72
2021/04/23 11:28:12;;;;;;;4.30;2.90;;;17.80;20.90;;;;;;10437894;28;20307;-71
2021/04/23 11:33:35;;;;;;;4.40;2.97;;;17.90;20.40;;;;;;10438717;28;20255;-72
2021/04/23 11:38:52;;;;;;;3.73;2.50;;;18.00;20.40;;;;;;10442821;28;20649;-72
2021/04/23 11:43:54;;;;;;;5.70;3.20;;;18.10;20.20;;;;;;10445796;28;20319;-73
2021/04/23 11:48:58;;;;;;;4.97;2.53;;;18.20;19.80;;;;;;10447947;28;20308;-73
2021/04/23 11:54:01;;;;;;;4.37;2.63;;;18.20;20.00;;;;;;10447901;28;20225;-73
2021/04/23 11:59:06;;;;;;;3.60;2.43;;;18.20;19.90;;;;;;10447855;28;20217;-72
2021/04/23 12:04:09;;;;;;;4.30;2.70;;;18.20;19.00;;;;;;10442235;28;20225;-71
2021/04/23 12:09:17;;;;;;;4.37;2.63;;;18.20;19.10;;;;;;10443706;28;20298;-74
2021/04/23 12:14:19;;;;;;;4.60;2.57;;;18.20;18.00;;;;;;10447310;28;20231;-71
2021/04/23 12:19:27;;;;;;;5.03;2.30;;;18.30;19.90;;;;;;10448643;28;20312;-71
2021/04/23 12:24:30;;;;;;;4.93;2.40;;;18.40;18.80;;;;;;10447894;28;20217;-72
2021/04/23 12:29:32;;;;;;;3.40;2.70;;;18.40;19.60;;;;;;10445053;28;20308;-71
2021/04/23 12:34:35;;;;;;;2.60;2.23;;;18.50;19.00;;;;;;10444810;28;20634;-71
2021/04/23 12:39:38;;;;;;;6.37;3.33;;;18.50;18.60;;;;;;10444440;28;20699;-71
2021/04/23 12:44:40;;;;;;;5.33;2.93;;;18.50;18.70;;;;;;10442152;28;20313;-71
2021/04/23 12:49:44;;;;;;;4.03;3.10;;;18.50;18.90;;;;;;10443183;28;20225;-72
2021/04/23 12:54:48;;;;;;;3.73;2.83;;;18.60;18.40;;;;;;10445683;28;20721;-72
2021/04/23 12:59:52;;;;;;;5.43;3.10;;;18.70;18.70;;;;;;10448635;28;20720;-72
2021/04/23 13:05:07;;;;;;;4.53;3.30;;;18.70;19.00;;;;;;10442950;28;20308;-72
2021/04/23 13:10:11;;;;;;;4.10;2.60;;;18.80;17.70;;;;;;10445040;28;20278;-72
2021/04/23 13:15:26;;;;;;;6.53;2.70;;;18.80;18.20;;;;;;10442473;28;20324;-72
2021/04/23 13:20:31;;;;;;;4.67;2.80;;;18.90;17.60;;;;;;10443181;28;20245;-71
2021/04/23 13:25:35;;;;;;;3.47;2.63;;;18.90;18.00;;;;;;10442557;28;20230;-71
2021/04/23 13:30:39;;;;;;;6.07;2.80;;;18.90;18.10;;;;;;10443494;28;20794;-71
2021/04/23 13:35:45;;;;;;;3.70;2.77;;;18.90;18.00;;;;;;10442251;28;20228;-71
2021/04/23 13:40:47;;;;;;;4.93;2.70;;;18.90;17.60;;;;;;10444285;28;20218;-71
2021/04/23 13:45:58;;;;;;;5.23;2.40;;;19.00;17.80;;;;;;10441681;28;20228;-71
2021/04/23 13:51:04;;;;;;;5.30;2.80;;;19.00;16.80;;;;;;10443757;28;20305;-71
2021/04/23 13:56:10;;;;;;;4.43;2.23;;;19.00;17.30;;;;;;10445368;28;20696;-72
2021/04/23 14:01:12;;;;;;;5.03;2.57;;;19.00;17.50;;;;;;10440840;28;20310;-73
2021/04/23 14:06:15;;;;;;;6.07;3.20;;;19.00;18.00;;;;;;10442421;28;20693;-72
2021/04/23 14:11:19;;;;;;;5.57;2.90;;;19.00;17.50;;;;;;10442012;28;20232;-73
2021/04/23 14:16:22;;;;;;;5.00;2.80;;;19.10;17.40;;;;;;10442856;28;20335;-73
2021/04/23 14:21:27;;;;;;;4.67;2.80;;;19.10;17.00;;;;;;10441804;28;20299;-73
2021/04/23 14:26:29;;;;;;;4.17;2.40;;;19.10;15.90;;;;;;10447902;28;20252;-72
2021/04/23 14:31:32;;;;;;;3.93;2.50;;;19.10;17.10;;;;;;10447035;28;20229;-75
2021/04/23 14:36:38;;;;;;;5.90;3.10;;;19.10;17.20;;;;;;10443116;28;20308;-73
2021/04/23 14:41:42;;;;;;;3.50;2.53;;;19.10;15.90;;;;;;10443342;28;20229;-72
2021/04/23 14:46:48;;;;;;;13.43;3.93;;;19.20;17.00;;;;;;10442969;28;20297;-72
2021/04/23 14:51:54;;;;;;;4.13;2.60;;;19.20;16.70;;;;;;10444509;28;21115;-72
2021/04/23 14:56:56;;;;;;;4.80;2.40;;;19.20;16.80;;;;;;10443588;28;20598;-73
2021/04/23 15:01:58;;;;;;;5.30;2.67;;;19.30;16.80;;;;;;10441877;28;20631;-72
2021/04/23 15:07:01;;;;;;;5.87;2.90;;;19.30;16.90;;;;;;10441171;28;20775;-72
2021/04/23 15:12:05;;;;;;;4.13;2.80;;;19.40;16.10;;;;;;10440684;28;20300;-72
2021/04/23 15:17:07;;;;;;;5.83;2.70;;;19.40;16.30;;;;;;10450679;28;20333;-73
2021/04/23 15:22:10;;;;;;;4.23;2.30;;;19.50;16.60;;;;;;10451424;28;20283;-69
2021/04/23 15:27:13;;;;;;;4.33;2.13;;;19.50;16.30;;;;;;10451018;28;20227;-72
2021/04/23 15:32:15;;;;;;;3.37;2.43;;;19.50;16.20;;;;;;10450152;28;20260;-72
2021/04/23 15:37:18;;;;;;;3.30;2.50;;;19.60;16.30;;;;;;10451237;28;20229;-73
2021/04/23 15:42:20;;;;;;;4.40;2.33;;;19.60;16.20;;;;;;10445925;28;20260;-73
2021/04/23 15:47:22;;;;;;;3.23;2.60;;;19.60;16.20;;;;;;10442670;28;20228;-72
2021/04/23 15:52:26;;;;;;;4.40;2.60;;;19.60;16.10;;;;;;10450891;28;20233;-73
2021/04/23 15:57:28;;;;;;;3.10;2.50;;;19.60;15.60;;;;;;10446534;28;20708;-72
2021/04/23 16:02:30;;;;;;;3.63;2.57;;;19.70;16.10;;;;;;10444344;28;20267;-72
2021/04/23 16:07:33;;;;;;;3.37;2.70;;;19.70;16.10;;;;;;10448692;28;20240;-72
2021/04/23 16:12:36;;;;;;;4.23;2.53;;;19.70;16.00;;;;;;10444182;28;20673;-72
2021/04/23 16:17:38;;;;;;;5.47;2.67;;;19.70;16.20;;;;;;10447579;28;20241;-72
2021/04/23 16:22:42;;;;;;;3.57;2.73;;;19.80;16.20;;;;;;10447234;28;20631;-72
2021/04/23 16:27:45;;;;;;;4.37;3.17;;;19.90;16.10;;;;;;10444061;28;20588;-72
2021/04/23 16:32:48;;;;;;;5.30;2.90;;;19.90;16.10;;;;;;10445540;28;20643;-72
2021/04/23 16:37:52;;;;;;;4.07;2.63;;;19.90;15.90;;;;;;10448550;28;20303;-75
2021/04/23 16:43:00;;;;;;;3.53;2.43;;;20.00;15.60;;;;;;10447945;28;20244;-71
2021/04/23 16:48:03;;;;;;;6.10;2.50;;;20.00;15.60;;;;;;10443074;28;20791;-71
2021/04/23 16:53:07;;;;;;;3.50;2.50;;;20.10;15.70;;;;;;10446335;28;20282;-71
2021/04/23 16:58:09;;;;;;;3.00;2.30;;;20.10;15.40;;;;;;10443104;28;20283;-71
2021/04/23 17:03:14;;;;;;;2.50;2.10;;;20.10;15.60;;;;;;10444040;28;20267;-71
2021/04/23 17:08:17;;;;;;;4.07;2.70;;;20.20;15.50;;;;;;10439623;28;20312;-71
2021/04/23 17:13:19;;;;;;;5.60;2.40;;;20.20;15.30;;;;;;10444723;28;20231;-71
2021/04/23 17:18:22;;;;;;;4.30;2.37;;;20.20;15.30;;;;;;10442708;28;20304;-71
2021/04/23 17:23:25;;;;;;;2.60;2.33;;;20.20;15.60;;;;;;10443818;28;20242;-71
2021/04/23 17:28:28;;;;;;;3.87;2.40;;;20.20;15.30;;;;;;10445895;28;20328;-71
2021/04/23 17:33:30;;;;;;;3.83;2.00;;;20.20;15.30;;;;;;10445054;28;20231;-71
2021/04/23 17:38:33;;;;;;;3.23;2.00;;;20.10;15.20;;;;;;10444107;28;20795;-71
2021/04/23 17:43:35;;;;;;;4.30;2.00;;;20.00;15.20;;;;;;10441907;28;20830;-75
2021/04/23 17:48:38;;;;;;;2.53;1.90;;;19.90;15.30;;;;;;10446105;28;20240;-73
2021/04/23 17:53:43;;;;;;;3.03;2.20;;;19.80;15.60;;;;;;10443285;28;20239;-73
2021/04/23 17:58:46;;;;;;;2.90;2.10;;;19.60;15.20;;;;;;10442349;28;20308;-73
2021/04/23 18:03:49;;;;;;;2.20;2.00;;;19.50;15.40;;;;;;10444150;28;20229;-73
2021/04/23 18:08:52;;;;;;;4.57;2.10;;;19.40;15.50;;;;;;10440348;28;20229;-73
2021/04/23 18:13:54;;;;;;;5.30;1.93;;;19.20;15.50;;;;;;10443313;28;20233;-73
2021/04/23 18:18:57;;;;;;;2.60;1.80;;;19.10;15.80;;;;;;10442840;28;20220;-73
2021/04/23 18:24:00;;;;;;;2.93;1.93;;;19.00;16.00;;;;;;10444910;28;20638;-73
2021/04/23 18:29:03;;;;;;;3.30;2.10;;;18.90;16.30;;;;;;10441565;28;20231;-73
2021/04/23 18:34:05;;;;;;;2.90;2.00;;;18.80;16.30;;;;;;10440905;28;20256;-73
2021/04/23 18:39:14;;;;;;;2.47;2.23;;;18.70;16.30;;;;;;10439377;28;20237;-73
2021/04/23 18:44:18;;;;;;;3.40;3.10;;;18.50;16.40;;;;;;10441915;28;20323;-73
2021/04/23 18:49:20;;;;;;;5.20;3.00;;;18.40;16.60;;;;;;10449421;28;20629;-73
2021/04/23 18:54:24;;;;;;;4.20;2.70;;;18.30;16.60;;;;;;10440176;28;20324;-73
2021/04/23 18:59:26;;;;;;;3.57;3.13;;;18.10;16.70;;;;;;10449889;28;20221;-73
2021/04/23 19:04:28;;;;;;;7.83;5.17;;;18.00;16.70;;;;;;10448845;28;20632;-73
2021/04/23 19:09:32;;;;;;;13.23;9.03;;;17.80;16.70;;;;;;10446594;28;20573;-73
2021/04/23 19:14:34;;;;;;;11.63;7.83;;;17.70;16.80;;;;;;10448300;28;20237;-73
2021/04/23 19:19:36;;;;;;;17.83;12.57;;;17.60;16.80;;;;;;10447353;28;20304;-74
2021/04/23 19:24:40;;;;;;;21.17;13.30;;;17.50;16.90;;;;;;10445284;28;20228;-74
2021/04/23 19:29:42;;;;;;;14.80;10.50;;;17.30;16.80;;;;;;10448808;28;20801;-73
2021/04/23 19:34:44;;;;;;;11.63;8.17;;;17.10;16.80;;;;;;10448773;28;20780;-73
2021/04/23 19:39:47;;;;;;;10.37;7.50;;;17.00;16.90;;;;;;10446757;28;20304;-73
2021/04/23 19:44:50;;;;;;;7.83;5.13;;;16.80;17.10;;;;;;10447078;28;20779;-73
2021/04/23 19:49:53;;;;;;;5.73;4.67;;;16.60;17.30;;;;;;10446981;28;20311;-73
2021/04/23 19:54:57;;;;;;;6.80;4.67;;;16.40;17.30;;;;;;10447757;28;20224;-72
2021/04/23 20:00:00;;;;;;;6.97;5.03;;;16.30;17.50;;;;;;10448563;28;20304;-73
2021/04/23 20:05:02;;;;;;;4.67;4.00;;;16.20;17.50;;;;;;10448506;28;20232;-73
2021/04/23 20:10:07;;;;;;;4.47;4.07;;;16.00;17.30;;;;;;10445502;28;20260;-72
2021/04/23 20:15:10;;;;;;;8.30;7.00;;;15.80;17.40;;;;;;10448023;28;20308;-72
2021/04/23 20:20:15;;;;;;;10.17;6.70;;;15.40;17.60;;;;;;10440306;28;20925;-72
2021/04/23 20:25:19;;;;;;;8.23;5.27;;;15.20;17.90;;;;;;10443442;28;20229;-72
2021/04/23 20:30:21;;;;;;;5.33;4.37;;;15.10;17.90;;;;;;10446651;28;20422;-74
2021/04/23 20:35:24;;;;;;;4.50;3.90;;;14.80;17.80;;;;;;10445412;28;20688;-75
2021/04/23 20:40:27;;;;;;;4.27;3.60;;;14.50;18.00;;;;;;10448008;28;20661;-74
2021/04/23 20:45:30;;;;;;;4.23;3.57;;;14.30;18.40;;;;;;10451358;28;20228;-74
2021/04/23 20:50:32;;;;;;;7.77;4.03;;;14.10;18.40;;;;;;10450432;28;20233;-74
2021/04/23 20:55:36;;;;;;;6.03;4.00;;;14.10;18.70;;;;;;10447640;28;20253;-74
2021/04/23 21:00:38;;;;;;;4.53;3.83;;;14.00;18.80;;;;;;10445709;28;20252;-74
2021/04/23 21:05:40;;;;;;;6.37;4.30;;;13.90;18.60;;;;;;10445767;28;20851;-72
2021/04/23 21:10:43;;;;;;;4.20;3.80;;;13.70;18.80;;;;;;10445258;28;20279;-72
2021/04/23 21:15:46;;;;;;;6.73;4.47;;;13.50;19.00;;;;;;10445008;28;20716;-71
2021/04/23 21:20:52;;;;;;;6.27;4.27;;;13.30;18.90;;;;;;10445073;28;20217;-74
2021/04/23 21:25:56;;;;;;;5.43;4.30;;;13.20;19.20;;;;;;10448624;28;20308;-72
2021/04/23 21:30:59;;;;;;;5.90;4.40;;;13.10;19.50;;;;;;10453014;28;20304;-71
2021/04/23 21:36:01;;;;;;;4.57;4.10;;;13.00;19.30;;;;;;10454673;28;20221;-73
2021/04/23 21:41:05;;;;;;;7.57;3.97;;;12.90;19.20;;;;;;10448811;28;20236;-74
2021/04/23 21:46:07;;;;;;;5.83;4.10;;;12.70;19.50;;;;;;10445533;28;20339;-72
2021/04/23 21:51:09;;;;;;;6.20;4.93;;;12.60;19.70;;;;;;10457582;28;20256;-72
2021/04/23 21:56:12;;;;;;;4.80;4.30;;;12.50;19.90;;;;;;10446644;28;20248;-73
2021/04/23 22:01:15;;;;;;;7.47;4.90;;;12.50;20.20;;;;;;10443368;28;20315;-72
2021/04/23 22:06:17;;;;;;;6.23;5.63;;;12.40;20.20;;;;;;10445955;28;20229;-72
2021/04/23 22:11:21;;;;;;;8.03;7.20;;;12.30;20.10;;;;;;10441550;28;20275;-72
2021/04/23 22:16:24;;;;;;;9.27;6.27;;;12.30;20.10;;;;;;10444969;28;20263;-72
2021/04/23 22:21:26;;;;;;;9.13;6.70;;;12.20;20.00;;;;;;10444533;28;20247;-72
2021/04/23 22:26:29;;;;;;;8.13;5.30;;;12.10;20.00;;;;;;10435891;28;20231;-72
2021/04/23 22:31:32;;;;;;;5.50;4.63;;;11.80;19.80;;;;;;10440157;28;20233;-72
2021/04/23 22:36:36;;;;;;;4.83;3.97;;;11.60;19.80;;;;;;10444851;28;20319;-72
2021/04/23 22:41:39;;;;;;;4.63;4.13;;;11.50;20.20;;;;;;10442906;28;20735;-72
2021/04/23 22:46:42;;;;;;;6.53;4.33;;;11.50;20.40;;;;;;10442239;28;20752;-72
2021/04/23 22:51:44;;;;;;;5.77;3.77;;;11.50;20.30;;;;;;10443793;28;20229;-72
2021/04/23 22:56:47;;;;;;;5.53;4.03;;;11.30;20.10;;;;;;10437884;28;20248;-72
2021/04/23 23:01:49;;;;;;;8.60;4.17;;;11.20;20.40;;;;;;10444962;28;20325;-73
2021/04/23 23:06:52;;;;;;;6.37;4.10;;;11.00;20.50;;;;;;10442533;28;20228;-72
2021/04/23 23:11:55;;;;;;;5.23;4.07;;;11.00;20.60;;;;;;10440422;28;20223;-72
2021/04/23 23:16:58;;;;;;;5.20;3.73;;;10.90;20.80;;;;;;10441012;28;20308;-72
2021/04/23 23:22:00;;;;;;;6.20;4.10;;;10.80;20.80;;;;;;10440339;28;20834;-72
2021/04/23 23:27:03;;;;;;;4.80;4.30;;;10.70;20.90;;;;;;10438983;28;20308;-73
2021/04/23 23:32:06;;;;;;;8.00;4.30;;;10.60;21.00;;;;;;10437642;28;20232;-73
2021/04/23 23:37:08;;;;;;;5.40;3.63;;;10.50;20.90;;;;;;10451099;28;20229;-72
2021/04/23 23:42:11;;;;;;;4.97;4.03;;;10.30;20.80;;;;;;10449474;28;20252;-72
2021/04/23 23:47:14;;;;;;;4.27;3.53;;;10.20;21.30;;;;;;10442797;28;20252;-72
2021/04/23 23:52:17;;;;;;;4.50;4.10;;;10.10;21.40;;;;;;10448946;28;20264;-73
2021/04/23 23:57:20;;;;;;;4.47;4.00;;;10.10;21.40;;;;;;10450915;28;20319;-72
